Thunder radar more information blitzortung!


Radar de pluja more information rain snow radar


Visita la nostra xarxa de llocs de meteo:

Template documentation
and downloads

And another site



No particular awareness of the weather is required.    There are no Weather-warnings

Pagina Historial Weather Underground text

Diari Resum May 7, 2016 Unitats:  Mètric    Imperial   Tant
« Previous Dia
SegĂźent Dia »
Diari Setmana Mensual Anual Personalitzada
  Maxima: Minima: Media:
Temperatura: -17.8 °C -11.3 °C -9.4 °C
Punt de rosada: -17.8 °C -13.6 °C -12.5 °C
Humitat: Humidity % 58 % 70 %
Wind Speed: 0 km/h 0 km/h 8.7 km/h
RĂ fegues de vent: 0 km/h - -
Vent:- - ENE
Pression baro: 0 hPa 34130.9 hPa -
Precipitacions: 50.8 mm    
Historical Graphs
 
 
Dades de taula per May 7, 2016
Temps Temperatura Punt de rosada Pression baro Vent Wind Speed RĂ fegues de vent Humitat Rainfall Rate (Hourly)
-17.8 °C -17.8 °C 0 hPa Calm     Humidity % 0 mm
00:00 -9.8 °C -12.2 °C 34293.4 hPa NE 9 km/h 9.3 km/h 76 % 0 mm
00:05 -9.8 °C -12.2 °C 34293.4 hPa NNE 6 km/h 8 km/h 76 % 0 mm
00:10 -10.1 °C -12.4 °C 34222.3 hPa NNE 7.7 km/h 7.7 km/h 76 % 0 mm
00:20 -10.1 °C -12.4 °C 34222.3 hPa NE 7.7 km/h 10.3 km/h 75 % 0 mm
00:30 -10.1 °C -12.4 °C 34222.3 hPa NE 7.7 km/h 10.3 km/h 75 % 0 mm
00:40 -10.1 °C -12.6 °C 34222.3 hPa NE 5.1 km/h 10.3 km/h 75 % 0 mm
00:50 -10.1 °C -12.6 °C 34222.3 hPa NNE 5.1 km/h 7.7 km/h 75 % 0 mm
01:00 -10.2 °C -12.6 °C 34198.6 hPa NNE 5.1 km/h 10.3 km/h 75 % 0 mm
01:10 -10.2 °C -12.6 °C 34198.6 hPa NNE 5.1 km/h 10.3 km/h 75 % 0 mm
01:20 -10.2 °C -12.7 °C 34198.6 hPa NE 7.7 km/h 12.9 km/h 74 % 0 mm
01:30 -10.2 °C -12.8 °C 34198.6 hPa NE 5.1 km/h 7.7 km/h 73 % 0 mm
01:40 -10.2 °C -12.8 °C 34164.7 hPa ENE 2.6 km/h 5.1 km/h 73 % 0 mm
01:50 -10.2 °C -12.9 °C 34164.7 hPa Calm   2.6 km/h 72 % 0 mm
02:00 -10.2 °C -12.9 °C 34198.6 hPa Calm     72 % 0 mm
02:10 -10.2 °C -13.1 °C 34198.6 hPa NNE 5.1 km/h 7.7 km/h 71 % 0 mm
02:20 -10.2 °C -12.9 °C 34198.6 hPa NE 5.1 km/h 7.7 km/h 72 % 0 mm
02:30 -10.2 °C -12.9 °C 34198.6 hPa NE 2.6 km/h 5.1 km/h 72 % 0 mm
02:40 -10.2 °C -12.9 °C 34198.6 hPa NE 2.6 km/h 7.7 km/h 72 % 0 mm
02:50 -10.2 °C -12.8 °C 34198.6 hPa NE 2.6 km/h 5.1 km/h 73 % 0 mm
03:00 -10.1 °C -12.7 °C 34198.6 hPa NE 5.1 km/h 5.1 km/h 73 % 0 mm
03:10 -10.1 °C -12.7 °C 34198.6 hPa NE 2.6 km/h 7.7 km/h 73 % 0 mm
03:20 -10.1 °C -12.7 °C 34198.6 hPa ENE 2.6 km/h 7.7 km/h 73 % 0 mm
03:30 -10.1 °C -12.7 °C 34198.6 hPa ENE 5.1 km/h 7.7 km/h 73 % 0 mm
03:40 -9.9 °C -13 °C 34198.6 hPa ENE 5.1 km/h 10.3 km/h 69 % 0 mm
03:50 -9.8 °C -13.1 °C 34198.6 hPa ENE 5.1 km/h 10.3 km/h 68 % 0 mm
04:00 -9.8 °C -12.9 °C 34222.3 hPa East 15.6 km/h 15.6 km/h 69 % 0 mm
04:10 -9.9 °C -13 °C 34222.3 hPa East 12.9 km/h 20.8 km/h 69 % 0 mm
04:20 -10 °C -13.1 °C 34222.3 hPa ESE 12.9 km/h 18.2 km/h 69 % 0 mm
04:30 -10 °C -13.1 °C 34222.3 hPa East 12.9 km/h 12.9 km/h 69 % 0 mm
04:40 -10 °C -13.5 °C 34222.3 hPa ENE 12.9 km/h 15.6 km/h 66 % 0 mm
04:50 -10.1 °C -13.5 °C 34222.3 hPa NE 15.6 km/h 23.3 km/h 66 % 0 mm
05:00 -10.1 °C -13.5 °C 34222.3 hPa NE 12.9 km/h 12.9 km/h 66 % 0 mm
05:10 -10.2 °C -13.5 °C 34256.2 hPa ENE 7.7 km/h 12.9 km/h 67 % 0 mm
05:20 -10.3 °C -13.6 °C 34256.2 hPa NE 12.9 km/h 18.2 km/h 68 % 0 mm
05:30 -10.4 °C -13.6 °C 34256.2 hPa NE 7.7 km/h 15.6 km/h 68 % 0 mm
05:40 -10.4 °C -13.4 °C 34256.2 hPa NE 7.7 km/h 15.6 km/h 70 % 0 mm
05:50 -10.6 °C -13.3 °C 34256.2 hPa NE 7.7 km/h 7.7 km/h 72 % 0 mm
06:00 -10.6 °C -13.2 °C 34222.3 hPa NE 5.1 km/h 10.3 km/h 73 % 0 mm
06:10 -10.6 °C -13.1 °C 34256.2 hPa NE 5.1 km/h 10.3 km/h 74 % 0 mm
06:20 -10.6 °C -12.9 °C 34256.2 hPa NE 2.6 km/h 7.7 km/h 75 % 0 mm
06:30 -10.5 °C -12.9 °C 34256.2 hPa ENE 5.1 km/h 7.7 km/h 75 % 0 mm
06:40 -10.4 °C -12.7 °C 34256.2 hPa East 2.6 km/h 7.7 km/h 76 % 0 mm
11:40 -10.4 °C -12.7 °C 34256.2 hPa ESE 3.1 km/h 5.1 km/h 76 % 0 mm
11:45 -10.4 °C -12.7 °C 34256.2 hPa East 6 km/h 6.3 km/h 76 % 0 mm
11:50 -10.3 °C -12.6 °C 34256.2 hPa ESE 6 km/h 6 km/h 76 % 0 mm
11:55 -10.3 °C -12.6 °C 34256.2 hPa ESE 6 km/h   76 % 0 mm
12:00 -10.3 °C -12.6 °C 34256.2 hPa East 6 km/h 6 km/h 76 % 0 mm
12:05 -10.3 °C -12.6 °C 34256.2 hPa East 6 km/h 6 km/h 76 % 0 mm
12:11 -10.2 °C -12.6 °C 34256.2 hPa ESE 6 km/h 6.3 km/h 76 % 0 mm
12:16 -10.2 °C -12.4 °C 34256.2 hPa East 6 km/h 6 km/h 77 % 0 mm
12:20 -7.7 °C -12 °C 34164.7 hPa NNE 5.1 km/h 5.1 km/h 61 % 25.4 mm
12:21 -10.2 °C -12.4 °C 34256.2 hPa ESE 8 km/h 8 km/h 77 % 0 mm
12:26 -10.2 °C -12.4 °C 34256.2 hPa ESE 6 km/h 6.3 km/h 77 % 0 mm
12:31 -10.1 °C -12.2 °C 34256.2 hPa ENE 6 km/h 6 km/h 78 % 0 mm
12:36 -10.1 °C -12.3 °C 34256.2 hPa ESE 9 km/h 9 km/h 77 % 0 mm
12:41 -10 °C -12.2 °C 34256.2 hPa East 6 km/h 6 km/h 77 % 0 mm
12:46 -9.9 °C -12.2 °C 34256.2 hPa NE 9 km/h 9 km/h 77 % 25.4 mm
12:56 -9.7 °C -12 °C 34256.2 hPa WSW 6 km/h 6 km/h 76 % 25.4 mm
13:06 -9.6 °C -11.9 °C 34256.2 hPa NNE 11.9 km/h 11.9 km/h 76 % 25.4 mm
13:11 -9.6 °C -11.9 °C 34222.3 hPa NNE 12.2 km/h 12.2 km/h 76 % 25.4 mm
13:16 -9.6 °C -11.9 °C 34222.3 hPa NE 6 km/h 6.3 km/h 76 % 25.4 mm
13:21 -9.4 °C -11.9 °C 34222.3 hPa ENE 15 km/h 15 km/h 75 % 25.4 mm
13:26 -9.4 °C -11.9 °C 34222.3 hPa NE 9 km/h 9 km/h 74 % 25.4 mm
13:31 -9.3 °C -12 °C 34222.3 hPa ENE 11.9 km/h 11.9 km/h 73 % 25.4 mm
13:36 -9.2 °C -11.8 °C 34222.3 hPa ENE 9 km/h 9 km/h 73 % 25.4 mm
13:41 -9.2 °C -12 °C 34222.3 hPa NNE 11.9 km/h 11.9 km/h 72 % 25.4 mm
13:46 -9.1 °C -11.9 °C 34222.3 hPa NE 12.2 km/h 12.2 km/h 72 % 0 mm
13:51 -9.1 °C -12 °C 34222.3 hPa ENE 11.9 km/h 11.9 km/h 71 % 0 mm
13:56 -9 °C -11.9 °C 34198.6 hPa NNE 17.9 km/h 17.9 km/h 71 % 0 mm
14:01 -8.9 °C -11.8 °C 34198.6 hPa ENE 15 km/h 15 km/h 71 % 0 mm
14:06 -8.8 °C -11.8 °C 34198.6 hPa NE 11.9 km/h 11.9 km/h 71 % 0 mm
14:11 -8.8 °C -11.9 °C 34198.6 hPa NNE 20.9 km/h 20.9 km/h 69 % 0 mm
14:16 -8.7 °C -11.8 °C 34198.6 hPa NNE 11.9 km/h 11.9 km/h 70 % 0 mm
14:21 -8.7 °C -11.8 °C 34198.6 hPa WNW 9 km/h 9 km/h 69 % 0 mm
14:26 -8.7 °C -11.8 °C 34164.7 hPa NE 17.4 km/h 17.4 km/h 69 % 0 mm
14:31 -8.7 °C -12 °C 34164.7 hPa ENE 17.9 km/h 17.9 km/h 68 % 0 mm
14:36 -8.6 °C -11.9 °C 34164.7 hPa NE 15 km/h 15 km/h 68 % 0 mm
14:41 -8.6 °C -11.9 °C 34198.6 hPa ESE 15 km/h 15 km/h 68 % 0 mm
14:51 -8.7 °C -12.4 °C 34198.6 hPa NNE 20.9 km/h 20.9 km/h 64 % 0 mm
15:01 -8.7 °C -12.6 °C 34198.6 hPa ENE 15 km/h 15 km/h 63 % 0 mm
15:06 -8.6 °C -12.6 °C 34198.6 hPa NNE 20.9 km/h 20.9 km/h 63 % 0 mm
15:11 -8.7 °C -12.6 °C 34164.7 hPa NNE 17.9 km/h 17.9 km/h 63 % 0 mm
15:16 -8.6 °C -12.5 °C 34164.7 hPa NNE 20.9 km/h 20.9 km/h 63 % 0 mm
15:21 -8.4 °C -12.7 °C 34164.7 hPa NNE 15 km/h 15 km/h 61 % 0 mm
15:26 -8.4 °C -12.6 °C 34164.7 hPa ENE 23.8 km/h 23.8 km/h 61 % 0 mm
15:36 -8.3 °C -12.7 °C 34164.7 hPa ENE 9 km/h 9 km/h 60 % 0 mm
15:41 -8.2 °C -12.6 °C 34198.6 hPa ENE 6.3 km/h 6.3 km/h 60 % 0 mm
15:46 -8.2 °C -12.6 °C 34198.6 hPa ENE 15.3 km/h 15.3 km/h 60 % 0 mm
15:51 -8.2 °C -12.4 °C 34198.6 hPa NE 11.9 km/h 11.9 km/h 61 % 0 mm
15:56 -8.1 °C -12.2 °C 34198.6 hPa North 6 km/h 6.3 km/h 62 % 0 mm
16:01 -8 °C -12.1 °C 34198.6 hPa North 6 km/h 6 km/h 62 % 0 mm
16:06 -7.9 °C -12 °C 34198.6 hPa NNE 6.8 km/h 6.8 km/h 62 % 0 mm
16:11 -7.9 °C -12 °C 34198.6 hPa NNE 12.2 km/h 12.2 km/h 62 % 0 mm
16:16 -7.9 °C -12.1 °C 34198.6 hPa NE 11.9 km/h 11.9 km/h 62 % 0 mm
16:21 -8 °C -12.1 °C 34198.6 hPa NNE 11.1 km/h 11.1 km/h 62 % 0 mm
16:26 -8 °C -12.1 °C 34198.6 hPa NNE 6 km/h 6 km/h 62 % 0 mm
16:31 -8 °C -12.1 °C 34198.6 hPa ENE 11.9 km/h 11.9 km/h 62 % 0 mm
16:36 -8 °C -12.1 °C 34198.6 hPa NE 11.9 km/h 11.9 km/h 62 % 0 mm
16:41 -8 °C -12.1 °C 34198.6 hPa NNE 6 km/h 6 km/h 62 % 0 mm
16:46 -8 °C -12.2 °C 34198.6 hPa ENE 9 km/h 9.3 km/h 61 % 0 mm
16:51 -8 °C -12.2 °C 34198.6 hPa WNW 6.3 km/h 6.3 km/h 61 % 0 mm
16:56 -7.9 °C -12.2 °C 34198.6 hPa NNE 9 km/h 9 km/h 61 % 0 mm
17:01 -7.8 °C -12.1 °C 34198.6 hPa NNE 6 km/h 6 km/h 61 % 0 mm
17:06 -7.8 °C -12 °C 34198.6 hPa North 6.3 km/h 6.3 km/h 61 % 0 mm
17:11 -7.8 °C -12 °C 34164.7 hPa ENE 12.7 km/h 12.7 km/h 61 % 0 mm
17:16 -7.7 °C -12 °C 34164.7 hPa NW 11.9 km/h 11.9 km/h 61 % 0 mm
17:22 -7.7 °C -12 °C 34164.7 hPa ENE 3.1 km/h 5.6 km/h 61 % 25.4 mm
17:27 -7.7 °C -12.1 °C 34164.7 hPa East 6.3 km/h 6.3 km/h 60 % 25.4 mm
17:32 -7.7 °C -12.1 °C 34164.7 hPa ENE 9 km/h 9 km/h 60 % 25.4 mm
17:37 -7.6 °C -12 °C 34164.7 hPa ESE 6 km/h   60 % 25.4 mm
17:42 -7.6 °C -11.9 °C 34164.7 hPa NNE 6 km/h 6 km/h 60 % 25.4 mm
17:47 -7.5 °C -11.9 °C 34164.7 hPa NE 6.3 km/h 6.3 km/h 60 % 25.4 mm
17:52 -7.6 °C -12.1 °C 34164.7 hPa ENE 9 km/h 9 km/h 59 % 25.4 mm
17:57 -7.6 °C -12.1 °C 34164.7 hPa NNE 9 km/h 9 km/h 59 % 25.4 mm
18:02 -7.6 °C -12.1 °C 34164.7 hPa NE 6.3 km/h 6.3 km/h 59 % 25.4 mm
18:07 -7.6 °C -12.1 °C 34164.7 hPa ENE 6 km/h 6.3 km/h 59 % 25.4 mm
18:12 -7.6 °C -12.2 °C 34164.7 hPa NE 6 km/h 6 km/h 58 % 25.4 mm
18:17 -7.6 °C -12.2 °C 34164.7 hPa ENE 10.3 km/h 10.3 km/h 58 % 25.4 mm
18:22 -7.6 °C -12.2 °C 34164.7 hPa ESE 11.9 km/h 11.9 km/h 58 % 0 mm
18:27 -7.6 °C -12.2 °C 34164.7 hPa ESE 12.7 km/h 12.7 km/h 58 % 0 mm
18:32 -7.7 °C -12.2 °C 34164.7 hPa ESE 20.9 km/h 20.9 km/h 59 % 0 mm
18:37 -7.8 °C -12.3 °C 34164.7 hPa ESE 23.8 km/h 23.8 km/h 59 % 0 mm
18:42 -7.9 °C -12.4 °C 34164.7 hPa ESE 20.3 km/h 20.3 km/h 59 % 0 mm
18:47 -7.9 °C -12.4 °C 34164.7 hPa East 23.8 km/h 23.8 km/h 59 % 0 mm
18:52 -8.1 °C -12.6 °C 34164.7 hPa East 16.6 km/h 16.6 km/h 59 % 0 mm
18:57 -8.2 °C -12.7 °C 34164.7 hPa ENE 15 km/h 15 km/h 59 % 0 mm
19:02 -8.2 °C -12.6 °C 34164.7 hPa ESE 15 km/h 15 km/h 60 % 0 mm
19:07 -8.3 °C -12.6 °C 34164.7 hPa ENE 20.9 km/h 20.9 km/h 61 % 0 mm
19:10 -10.1 °C -12.7 °C 34198.6 hPa ENE 2.6 km/h 2.6 km/h 73 % 0 mm
19:12 -8.3 °C -12.6 °C 34164.7 hPa ESE 15 km/h 15 km/h 61 % 0 mm
19:17 -8.4 °C -12.3 °C 34164.7 hPa ESE 15 km/h 15 km/h 63 % 0 mm
19:20 -10.2 °C -12.7 °C 34198.6 hPa ENE 2.6 km/h 5.1 km/h 74 % 0 mm
19:22 -8.4 °C -12.4 °C 34164.7 hPa ENE 15 km/h 15 km/h 63 % 0 mm
19:27 -8.4 °C -12.3 °C 34130.9 hPa ESE 19.2 km/h 19.2 km/h 64 % 0 mm
19:30 -10.3 °C -12.6 °C 34198.6 hPa Calm   5.1 km/h 76 % 0 mm
19:32 -8.6 °C -12.2 °C 34130.9 hPa ENE 17.9 km/h 17.9 km/h 66 % 0 mm
19:37 -8.7 °C -12.1 °C 34130.9 hPa ESE 20.9 km/h 20.9 km/h 67 % 0 mm
19:42 -8.8 °C -12.1 °C 34130.9 hPa NNE 20.9 km/h 20.9 km/h 68 % 0 mm
19:47 -8.8 °C -12.1 °C 34130.9 hPa ESE 15 km/h 15 km/h 68 % 0 mm
19:50 -10.5 °C -12.7 °C 34198.6 hPa Calm     77 % 0 mm
19:57 -8.8 °C -12 °C 34130.9 hPa ENE 15 km/h 15 km/h 69 % 0 mm
20:00 -10.6 °C -12.6 °C 34164.7 hPa Calm     78 % 0 mm
20:02 -8.9 °C -11.9 °C 34130.9 hPa ENE 20.9 km/h 20.9 km/h 70 % 0 mm
20:07 -8.9 °C -11.8 °C 34130.9 hPa ENE 15 km/h 15 km/h 71 % 0 mm
20:10 -10.7 °C -12.7 °C 34198.6 hPa Calm     78 % 0 mm
20:12 -9 °C -11.8 °C 34130.9 hPa ENE 11.9 km/h 11.9 km/h 72 % 0 mm
20:17 -9.1 °C -11.9 °C 34130.9 hPa NE 15 km/h 15 km/h 72 % 0 mm
20:20 -10.7 °C -12.7 °C 34198.6 hPa Calm   2.6 km/h 79 % 0 mm
20:22 -9.2 °C -12 °C 34130.9 hPa ENE 11.9 km/h 11.9 km/h 72 % 0 mm
20:27 -9.2 °C -11.8 °C 34130.9 hPa ENE 15 km/h 15 km/h 73 % 0 mm
20:30 -10.7 °C -12.7 °C 34198.6 hPa Calm   2.6 km/h 79 % 0 mm
20:32 -9.2 °C -12 °C 34130.9 hPa ESE 15.3 km/h 15.3 km/h 72 % 0 mm
20:42 -9.3 °C -12.1 °C 34164.7 hPa ENE 15 km/h 15 km/h 72 % 0 mm
20:45 -10.7 °C -12.7 °C 34198.6 hPa Calm   5.1 km/h 79 % 0 mm
20:47 -9.3 °C -12.1 °C 34164.7 hPa East 17.9 km/h 17.9 km/h 72 % 0 mm
20:52 -9.3 °C -12.1 °C 34164.7 hPa ESE 9 km/h 9 km/h 72 % 0 mm
20:55 -10.7 °C -12.7 °C 34198.6 hPa Calm   5.1 km/h 79 % 0 mm
20:57 -9.3 °C -12.2 °C 34164.7 hPa ESE 14 km/h 14 km/h 71 % 0 mm
21:02 -9.3 °C -12.2 °C 34164.7 hPa ENE 11.9 km/h 11.9 km/h 71 % 0 mm
21:05 -10.8 °C -12.8 °C 34198.6 hPa Calm     79 % 0 mm
21:07 -9.3 °C -12.2 °C 34164.7 hPa ESE 17.9 km/h 17.9 km/h 71 % 0 mm
21:12 -9.3 °C -12.2 °C 34164.7 hPa ESE 11.9 km/h 11.9 km/h 71 % 0 mm
21:15 -10.9 °C -12.9 °C 34198.6 hPa Calm     79 % 0 mm
21:17 -9.3 °C -12.2 °C 34164.7 hPa ESE 14 km/h 14 km/h 71 % 0 mm
21:22 -9.3 °C -12.3 °C 34164.7 hPa ESE 17.9 km/h 17.9 km/h 70 % 0 mm
21:25 -11 °C -12.9 °C 34198.6 hPa Calm     80 % 0 mm
21:27 -9.3 °C -12.3 °C 34198.6 hPa East 6 km/h 6 km/h 70 % 0 mm
21:32 -9.3 °C -12.2 °C 34198.6 hPa ESE 8 km/h   71 % 0 mm
21:35 -11.1 °C -12.9 °C 34198.6 hPa Calm   2.6 km/h 80 % 0 mm
21:37 -9.3 °C -12.2 °C 34198.6 hPa East 9 km/h 9 km/h 71 % 0 mm
21:42 -9.3 °C -12.2 °C 34198.6 hPa ESE 6 km/h 6 km/h 71 % 0 mm
21:45 -11.1 °C -12.9 °C 34198.6 hPa Calm   2.6 km/h 80 % 0 mm
21:47 -9.3 °C -12.3 °C 34198.6 hPa ESE 11.9 km/h 11.9 km/h 70 % 0 mm
21:52 -9.3 °C -12.3 °C 34198.6 hPa ESE 9 km/h 9 km/h 70 % 0 mm
21:55 -11.1 °C -12.9 °C 34198.6 hPa Calm   2.6 km/h 80 % 0 mm
21:57 -9.3 °C -12.3 °C 34198.6 hPa ENE 6 km/h 6 km/h 70 % 0 mm
22:02 -9.4 °C -12.3 °C 34198.6 hPa ENE 7.6 km/h 7.6 km/h 71 % 0 mm
22:05 -11 °C -12.9 °C 34198.6 hPa ENE 5.1 km/h 7.7 km/h 79 % 0 mm
22:07 -9.4 °C -12.3 °C 34198.6 hPa ENE 6.8 km/h 6.8 km/h 71 % 0 mm
22:12 -9.4 °C -12.3 °C 34198.6 hPa ENE 6 km/h 6 km/h 71 % 0 mm
22:17 -9.4 °C -12.3 °C 34198.6 hPa ENE 4.2 km/h 4.2 km/h 71 % 0 mm
22:22 -9.4 °C -12.3 °C 34198.6 hPa ENE 6 km/h 6 km/h 71 % 0 mm
22:25 -11.1 °C -13.1 °C 34198.6 hPa Calm   2.6 km/h 79 % 0 mm
22:27 -9.4 °C -12.3 °C 34164.7 hPa NE 6 km/h 6 km/h 71 % 0 mm
22:32 -9.4 °C -12.3 °C 34164.7 hPa ENE 3.7 km/h 3.7 km/h 71 % 0 mm
22:35 -11.2 °C -13.1 °C 34198.6 hPa SSW 2.6 km/h 5.1 km/h 79 % 0 mm
22:37 -9.4 °C -12.3 °C 34164.7 hPa NE 6 km/h 6 km/h 71 % 0 mm
22:42 -9.4 °C -12.3 °C 34164.7 hPa ENE 3.7 km/h 3.7 km/h 71 % 0 mm
22:45 -11.2 °C -13.2 °C 34164.7 hPa SSW 2.6 km/h 2.6 km/h 79 % 0 mm
22:47 -9.5 °C -12.4 °C 34164.7 hPa ENE 3.1 km/h   71 % 0 mm
22:52 -9.5 °C -12.4 °C 34164.7 hPa SSE 3.1 km/h 3.1 km/h 71 % 0 mm
22:55 -11.3 °C -13.2 °C 34164.7 hPa Calm   2.6 km/h 79 % 0 mm
22:57 -9.6 °C -12.3 °C 34198.6 hPa ENE 5.1 km/h 5.1 km/h 72 % 0 mm
23:02 -9.6 °C -12.4 °C 34198.6 hPa ESE 6 km/h 6 km/h 71 % 0 mm
23:05 -11.2 °C -13.2 °C 34164.7 hPa Calm   5.1 km/h 79 % 0 mm
23:07 -9.6 °C -12.3 °C 34198.6 hPa ENE 6 km/h 6 km/h 72 % 0 mm
23:12 -9.6 °C -12.4 °C 34198.6 hPa East 6.8 km/h 6.8 km/h 72 % 0 mm
23:15 -11.2 °C -13.2 °C 34164.7 hPa WSW 2.6 km/h 5.1 km/h 79 % 0 mm
23:17 -9.7 °C -12.4 °C 34198.6 hPa ENE 6 km/h 6 km/h 72 % 0 mm
23:22 -9.7 °C -12.6 °C 34198.6 hPa East 6 km/h 6 km/h 71 % 0 mm
23:25 -11.2 °C -13.1 °C 34164.7 hPa WSW 2.6 km/h 2.6 km/h 80 % 0 mm
23:27 -9.7 °C -12.6 °C 34198.6 hPa ENE 6 km/h 6 km/h 71 % 0 mm
23:32 -9.7 °C -12.6 °C 34198.6 hPa East 7.6 km/h 7.6 km/h 71 % 0 mm
23:35 -11.2 °C -13.1 °C 34164.7 hPa WSW 2.6 km/h 2.6 km/h 79 % 0 mm
23:37 -9.8 °C -12.7 °C 34198.6 hPa ESE 11.9 km/h 11.9 km/h 71 % 0 mm
23:42 -9.8 °C -12.7 °C 34164.7 hPa ENE 11.9 km/h 11.9 km/h 71 % 0 mm
23:45 -11.2 °C -13.1 °C 34164.7 hPa WSW 2.6 km/h 5.1 km/h 79 % 0 mm
23:47 -9.8 °C -12.7 °C 34164.7 hPa ENE 9 km/h 9 km/h 71 % 0 mm
23:52 -9.9 °C -12.7 °C 34164.7 hPa ENE 6 km/h 7.6 km/h 72 % 0 mm
23:55 -11.1 °C -13.1 °C 34130.9 hPa WSW 2.6 km/h 2.6 km/h 79 % 0 mm
23:57 -9.9 °C -12.7 °C 34198.6 hPa ENE 6 km/h 6 km/h 72 % 0 mm
Meteo Sesrovires
Elogis d' Weather Underground - 4 mb

Guio original per  Jim McMurry - jmcmurry@mwt.net Adaptat per a la plantilla per  Wim van der Kuil - Leuven-Template.eu

Trobareu la nostra informacio del temps tambe a:

Weather Underground

AWEKAS